Time;durP1;ratioP1;P1;durP2;ratioP2;P2;SDS_P1;SDS_P2;PMS_P1;PMS_P2;Temp;Humidity;BMP_temperature;BMP_pressure;BME280_temperature;BME280_humidity;BME280_pressure;Samples;Min_cycle;Max_cycle;Signal;HPM_P1;HPM_P2
2021/02/24 00:00:01;;;;;;;105;81.7;;;;;;;3.44;100;100591;;;;
2021/02/24 00:09:59;;;;;;;106;79.2;;;;;;;3.49;100;100593.9;;;;
2021/02/24 00:19:57;;;;;;;98.5;76.6;;;;;;;3.6;100;100588.9;;;;
2021/02/24 00:29:57;;;;;;;95.7;74.7;;;;;;;3.68;100;100594;;;;
2021/02/24 00:39:53;;;;;;;99.2;75.7;;;;;;;3.71;100;100572.2;;;;
2021/02/24 00:49:52;;;;;;;92.2;72.9;;;;;;;3.77;100;100566.9;;;;
2021/02/24 00:59:50;;;;;;;81.6;71;;;;;;;3.79;99.84863;100567.4;;;;
2021/02/24 01:09:48;;;;;;;85.6;69;;;;;;;3.76;98.60742;100551.9;;;;
2021/02/24 01:19:46;;;;;;;87.2;65.4;;;;;;;3.88;97.69531;100560;;;;
2021/02/24 01:29:44;;;;;;;96;73.4;;;;;;;3.98;97.66309;100576.4;;;;
2021/02/24 01:39:42;;;;;;;97.4;76.5;;;;;;;4.03;98.10742;100588;;;;
2021/02/24 01:49:40;;;;;;;105.3;70.5;;;;;;;4.08;97.60742;100589.2;;;;
2021/02/24 01:59:39;;;;;;;91.5;78.5;;;;;;;4.06;97.64746;100586.8;;;;
2021/02/24 02:09:37;;;;;;;119.3;88;;;;;;;3.95;97.87988;100612.3;;;;
2021/02/24 02:19:35;;;;;;;117.8;93.5;;;;;;;3.61;98.70508;100612.7;;;;
2021/02/24 02:29:33;;;;;;;107.9;89;;;;;;;3.41;98.9248;100603.9;;;;
2021/02/24 02:39:31;;;;;;;127.9;92.2;;;;;;;3.21;99.54785;100595.2;;;;
2021/02/24 02:49:29;;;;;;;122.7;89.6;;;;;;;3.07;99.86914;100609.6;;;;
2021/02/24 02:59:28;;;;;;;103.7;92.1;;;;;;;2.98;100;100609;;;;
2021/02/24 03:09:26;;;;;;;98.1;85.8;;;;;;;2.74;100;100612.3;;;;
2021/02/24 03:19:24;;;;;;;126.9;100.5;;;;;;;2.64;100;100588.8;;;;
2021/02/24 03:29:22;;;;;;;122.3;94.2;;;;;;;2.63;100;100570.4;;;;
2021/02/24 03:39:20;;;;;;;120.2;94.4;;;;;;;2.63;100;100552.6;;;;
2021/02/24 03:49:18;;;;;;;101.5;78.9;;;;;;;2.66;100;100528.2;;;;
2021/02/24 03:59:16;;;;;;;109.4;83.1;;;;;;;2.68;100;100539.4;;;;
2021/02/24 04:09:14;;;;;;;104;82.7;;;;;;;2.7;99.53125;100531.2;;;;
2021/02/24 04:19:12;;;;;;;114.7;79.4;;;;;;;2.57;99.38086;100516.1;;;;
2021/02/24 04:29:10;;;;;;;98.4;77.5;;;;;;;2.38;99.26953;100530.3;;;;
2021/02/24 04:39:08;;;;;;;105;81.5;;;;;;;2.25;98.96582;100533;;;;
2021/02/24 04:49:06;;;;;;;99;78.6;;;;;;;2.05;98.62207;100532.1;;;;
2021/02/24 04:59:04;;;;;;;95.9;76.7;;;;;;;1.7;97.25977;100553.5;;;;
2021/02/24 05:09:02;;;;;;;97.6;80.9;;;;;;;1.36;97.09277;100564.3;;;;
2021/02/24 05:19:00;;;;;;;86;63.4;;;;;;;1.17;97.81836;100571.2;;;;
2021/02/24 05:28:58;;;;;;;89;60.4;;;;;;;1.07;98.51758;100588.5;;;;
2021/02/24 05:38:56;;;;;;;84.2;65.3;;;;;;;1.06;99.47949;100584.2;;;;
2021/02/24 05:48:54;;;;;;;109.3;84.8;;;;;;;1.31;100;100588;;;;
2021/02/24 05:58:52;;;;;;;128.6;96.8;;;;;;;1.58;100;100591.5;;;;
2021/02/24 06:09:00;;;;;;;115.1;92.3;;;;;;;1.83;100;100603.3;;;;
2021/02/24 06:18:53;;;;;;;115.6;88.5;;;;;;;2.06;100;100616.2;;;;
2021/02/24 06:28:45;;;;;;;109.5;84.7;;;;;;;2.34;100;100646.9;;;;
2021/02/24 06:38:53;;;;;;;106.2;82.1;;;;;;;2.65;100;100651.6;;;;
2021/02/24 06:48:41;;;;;;;125.8;88.8;;;;;;;2.92;99.22852;100647.1;;;;
2021/02/24 06:58:39;;;;;;;123.9;92;;;;;;;3.12;96.99512;100645.3;;;;
2021/02/24 07:08:37;;;;;;;107.4;90.9;;;;;;;3.42;95.1748;100637.6;;;;
2021/02/24 07:18:35;;;;;;;104.6;78.3;;;;;;;3.86;94.19043;100637.6;;;;
2021/02/24 07:28:34;;;;;;;95.4;68;;;;;;;4.36;91.76367;100632.3;;;;
2021/02/24 07:38:32;;;;;;;110.2;72.5;;;;;;;4.88;87.7168;100623.9;;;;
2021/02/24 07:48:30;;;;;;;96.1;67.6;;;;;;;5.38;86.21777;100629.1;;;;
2021/02/24 07:58:28;;;;;;;86.8;67.9;;;;;;;5.87;82.88574;100634.3;;;;
2021/02/24 08:08:27;;;;;;;80.6;61.7;;;;;;;6.21;82.36914;100640;;;;
2021/02/24 08:18:25;;;;;;;89.5;64.7;;;;;;;6.63;81.25488;100632.7;;;;
2021/02/24 08:28:24;;;;;;;71.6;56.7;;;;;;;7.03;79.0293;100626.4;;;;
2021/02/24 08:38:22;;;;;;;80.1;59.4;;;;;;;7.64;78.63574;100627.7;;;;
2021/02/24 08:48:21;;;;;;;66.7;53.3;;;;;;;8.13;76.58105;100606.6;;;;
2021/02/24 08:58:19;;;;;;;66.4;55.8;;;;;;;8.42;73.71387;100614.4;;;;
2021/02/24 09:08:18;;;;;;;76;58.3;;;;;;;8.77;74.36719;100624.1;;;;
2021/02/24 09:18:17;;;;;;;75.4;57.7;;;;;;;9.05;72.44629;100619.4;;;;
2021/02/24 09:28:16;;;;;;;68.4;55.6;;;;;;;9.44;72.79199;100619.4;;;;
2021/02/24 09:38:15;;;;;;;74.8;55.2;;;;;;;9.97;72.37402;100629.4;;;;
2021/02/24 09:48:14;;;;;;;65.9;57.1;;;;;;;10.58;70.58691;100620.1;;;;
2021/02/24 09:58:13;;;;;;;77.1;56.1;;;;;;;11;66.8623;100617.4;;;;
2021/02/24 10:08:12;;;;;;;75.4;58.8;;;;;;;11.6;66.80664;100619.6;;;;
2021/02/24 10:18:11;;;;;;;73.4;60.1;;;;;;;11.88;64.13672;100621.9;;;;
2021/02/24 10:28:10;;;;;;;85.4;58.4;;;;;;;12.36;63.95703;100620.6;;;;
2021/02/24 10:38:09;;;;;;;69.5;54.2;;;;;;;12.61;64.10742;100590.8;;;;
2021/02/24 10:48:08;;;;;;;71.6;53.4;;;;;;;13.2;63.79297;100575.9;;;;
2021/02/24 10:58:08;;;;;;;49.1;37.9;;;;;;;13.86;59.92676;100584.5;;;;
2021/02/24 11:08:07;;;;;;;43.6;31.7;;;;;;;14.19;58.48535;100562.1;;;;
2021/02/24 11:18:06;;;;;;;25;20.2;;;;;;;14.71;56.33105;100545.1;;;;
2021/02/24 11:28:06;;;;;;;36.5;22.2;;;;;;;14.96;54.49316;100538.6;;;;
2021/02/24 11:38:05;;;;;;;30.4;19.5;;;;;;;15.17;54.51855;100533.7;;;;
2021/02/24 11:48:05;;;;;;;23.8;16.4;;;;;;;15.36;52.85449;100510.9;;;;
2021/02/24 11:58:05;;;;;;;29.4;16.7;;;;;;;15.77;53.11133;100511.2;;;;
2021/02/24 12:08:04;;;;;;;22.8;17.1;;;;;;;15.93;51.54297;100490.8;;;;
2021/02/24 12:18:04;;;;;;;34.7;20.8;;;;;;;16.17;53.23926;100487.2;;;;
2021/02/24 12:28:04;;;;;;;38;16.5;;;;;;;16.49;52.57617;100474.3;;;;
2021/02/24 12:38:04;;;;;;;26.2;14.7;;;;;;;16.66;51.53516;100467.5;;;;
2021/02/24 12:48:03;;;;;;;36.7;19.1;;;;;;;16.73;51.24316;100463.3;;;;
2021/02/24 12:58:03;;;;;;;28;17;;;;;;;16.98;51.88477;100451.9;;;;
2021/02/24 13:08:03;;;;;;;28;16.1;;;;;;;16.92;51.11621;100453.1;;;;
2021/02/24 13:18:03;;;;;;;38.7;16.7;;;;;;;16.82;51.0459;100444.3;;;;
2021/02/24 13:28:03;;;;;;;27;17.3;;;;;;;16.97;50.82129;100427.7;;;;
2021/02/24 13:38:03;;;;;;;36.7;15.5;;;;;;;17.04;50.99121;100418;;;;
2021/02/24 13:48:02;;;;;;;25.2;12.9;;;;;;;17.06;51.03906;100409.5;;;;
2021/02/24 13:58:02;;;;;;;22;11.4;;;;;;;17.13;50.70117;100412.6;;;;
2021/02/24 14:08:02;;;;;;;27.4;12.7;;;;;;;17.17;50.48633;100391;;;;
2021/02/24 14:18:02;;;;;;;21.1;11.9;;;;;;;17.03;51.95996;100389.1;;;;
2021/02/24 14:28:01;;;;;;;32.6;12.1;;;;;;;16.72;50.85059;100380;;;;
2021/02/24 14:38:01;;;;;;;27.7;10.1;;;;;;;16.39;52.05664;100378.5;;;;
2021/02/24 14:48:01;;;;;;;41.1;12.9;;;;;;;16.08;52.7793;100380.9;;;;
2021/02/24 14:58:01;;;;;;;32.9;12.5;;;;;;;15.66;53.61523;100360.2;;;;
2021/02/24 15:08:00;;;;;;;31.2;13.4;;;;;;;15.26;55.61035;100356.2;;;;
2021/02/24 15:18:00;;;;;;;24.7;12.6;;;;;;;14.78;56.90234;100352.8;;;;
2021/02/24 15:27:59;;;;;;;21.1;13.2;;;;;;;14.18;58.15039;100348.1;;;;
2021/02/24 15:37:59;;;;;;;22.9;12.8;;;;;;;13.59;59.02344;100350;;;;
2021/02/24 15:47:58;;;;;;;16.7;11;;;;;;;12.96;60.14551;100353.7;;;;
2021/02/24 15:57:58;;;;;;;19.2;11.3;;;;;;;12.34;60.99512;100347;;;;
2021/02/24 16:07:57;;;;;;;26.8;12.6;;;;;;;11.83;62.37891;100353.6;;;;
2021/02/24 16:17:56;;;;;;;31.2;21;;;;;;;11.16;64.90332;100362.7;;;;
2021/02/24 16:27:56;;;;;;;53.4;35.9;;;;;;;10.73;67.39941;100355.9;;;;
2021/02/24 16:37:54;;;;;;;56.5;34.9;;;;;;;10.3;68.41797;100365.1;;;;
2021/02/24 16:47:53;;;;;;;45.3;32;;;;;;;9.97;70.21777;100360.9;;;;
2021/02/24 16:57:52;;;;;;;82.8;57.4;;;;;;;9.74;70.32715;100355.1;;;;
2021/02/24 17:07:51;;;;;;;53;43.7;;;;;;;9.41;71.00684;100365;;;;
2021/02/24 17:17:49;;;;;;;64.4;53.8;;;;;;;9.15;72.7666;100371.3;;;;
2021/02/24 17:27:49;;;;;;;71;57;;;;;;;8.82;73.40918;100366;;;;
2021/02/24 17:37:47;;;;;;;92;61.7;;;;;;;8.53;74.125;100371.7;;;;
2021/02/24 17:47:46;;;;;;;82.5;46.6;;;;;;;8.13;75.62793;100365.7;;;;
2021/02/24 17:57:46;;;;;;;56.9;40.8;;;;;;;7.88;76.89746;100363.5;;;;
2021/02/24 18:07:46;;;;;;;44.7;28.2;;;;;;;7.68;77.55664;100365.9;;;;
2021/02/24 18:17:43;;;;;;;59.6;43.8;;;;;;;7.41;77.87695;100365.7;;;;
2021/02/24 18:27:40;;;;;;;59;40.8;;;;;;;7.1;79.8584;100360.9;;;;
2021/02/24 18:37:39;;;;;;;68;44.2;;;;;;;6.82;80.1748;100352.8;;;;
2021/02/24 18:47:38;;;;;;;59;37.7;;;;;;;6.58;82.79785;100354.8;;;;
2021/02/24 18:57:36;;;;;;;43.4;32.2;;;;;;;6.39;83.1748;100342.6;;;;
2021/02/24 19:07:36;;;;;;;51.1;35.3;;;;;;;6.17;84.54688;100339.8;;;;
2021/02/24 19:17:33;;;;;;;76;55.1;;;;;;;5.92;85.32422;100342.7;;;;
2021/02/24 19:27:33;;;;;;;93.4;58;;;;;;;5.69;86.80273;100345.4;;;;
2021/02/24 19:37:30;;;;;;;89.3;66.7;;;;;;;5.48;88.01758;100349.4;;;;
2021/02/24 19:47:28;;;;;;;88.2;64.8;;;;;;;5.3;89.58984;100343.3;;;;
2021/02/24 19:57:27;;;;;;;69.6;53.2;;;;;;;5.16;89.55957;100344.6;;;;
2021/02/24 20:07:25;;;;;;;60.2;43.9;;;;;;;5.01;91.15039;100337.8;;;;
2021/02/24 20:17:23;;;;;;;82.2;63.1;;;;;;;4.87;92.40527;100341.7;;;;
2021/02/24 20:27:21;;;;;;;94.4;67.2;;;;;;;4.71;92.52637;100331.7;;;;
2021/02/24 20:37:20;;;;;;;113.7;82.2;;;;;;;4.59;95.04785;100338.8;;;;
2021/02/24 20:47:18;;;;;;;116.4;89.6;;;;;;;4.45;96.52051;100337.4;;;;
2021/02/24 20:57:16;;;;;;;137.4;95.3;;;;;;;4.34;97.25684;100330.1;;;;
2021/02/24 21:07:14;;;;;;;92.8;73.3;;;;;;;4.22;97.33203;100340.7;;;;
2021/02/24 21:17:12;;;;;;;110.5;78.4;;;;;;;4.08;97.45313;100325.1;;;;
2021/02/24 21:27:10;;;;;;;75.9;58.4;;;;;;;4.01;98.47656;100311.8;;;;
2021/02/24 21:37:09;;;;;;;91.6;65.2;;;;;;;4.05;100;100302.3;;;;
2021/02/24 21:47:07;;;;;;;90.8;61.7;;;;;;;4.2;100;100291.3;;;;
2021/02/24 21:57:05;;;;;;;89.5;56.7;;;;;;;3.9;100;100291.2;;;;
2021/02/24 22:07:03;;;;;;;114.5;84.7;;;;;;;3.77;100;100286.9;;;;
2021/02/24 22:17:01;;;;;;;113.1;83.5;;;;;;;3.66;100;100300.9;;;;
2021/02/24 22:26:59;;;;;;;106.9;82;;;;;;;3.14;100;100310.2;;;;
2021/02/24 22:36:57;;;;;;;130.3;95;;;;;;;3.06;100;100321.1;;;;
2021/02/24 22:46:55;;;;;;;98.4;79.8;;;;;;;2.9;100;100314.5;;;;
2021/02/24 22:56:53;;;;;;;86.8;60.6;;;;;;;2.84;100;100311.8;;;;
2021/02/24 23:06:51;;;;;;;98;65.2;;;;;;;2.63;100;100298.9;;;;
2021/02/24 23:16:49;;;;;;;82.2;57.1;;;;;;;2.56;100;100298.9;;;;
2021/02/24 23:26:48;;;;;;;74;54.3;;;;;;;2.53;100;100299.3;;;;
2021/02/24 23:36:49;;;;;;;56.9;44;;;;;;;2.56;100;100290.9;;;;
2021/02/24 23:46:43;;;;;;;70.7;51.3;;;;;;;2.6;100;100289.5;;;;
2021/02/24 23:56:41;;;;;;;83.4;59.9;;;;;;;2.71;100;100286.1;;;;
